Time;durP1;ratioP1;P1;durP2;ratioP2;P2;SDS_P1;SDS_P2;PMS_P1;PMS_P2;Temp;Humidity;BMP_temperature;BMP_pressure;BME280_temperature;BME280_humidity;BME280_pressure;Samples;Min_cycle;Max_cycle;Signal;HPM_P1;HPM_P2
2022/12/15 00:40:59;;;;;;;17.88;10.40;;;-3.50;99.90;;;;;;5075121;28;20041;-71
2022/12/15 00:43:29;;;;;;;20.17;11.35;;;-3.60;99.90;;;;;;5073891;28;20504;-71
2022/12/15 00:48:40;;;;;;;17.70;9.82;;;-3.50;99.90;;;;;;5035370;28;20405;-71
2022/12/15 00:51:05;;;;;;;18.55;10.48;;;-3.50;99.90;;;;;;5039800;28;20063;-72
2022/12/15 01:21:02;;;;;;;17.90;10.45;;;-3.40;99.90;;;;;;5062088;28;20041;-72
2022/12/15 01:23:28;;;;;;;18.42;10.27;;;-3.40;99.90;;;;;;5053170;28;20040;-72
2022/12/15 01:25:54;;;;;;;19.20;10.30;;;-3.40;99.90;;;;;;5055252;28;20032;-71
2022/12/15 01:28:21;;;;;;;19.73;11.02;;;-3.40;99.90;;;;;;5036664;28;20167;-72
2022/12/15 01:30:47;;;;;;;15.52;10.15;;;-3.40;99.90;;;;;;5060473;28;20488;-72
2022/12/15 01:33:14;;;;;;;17.42;9.70;;;-3.40;99.90;;;;;;5056335;28;20040;-72
2022/12/15 01:35:40;;;;;;;15.43;9.75;;;-3.50;99.90;;;;;;5054776;28;20078;-72
2022/12/15 01:38:06;;;;;;;19.02;10.32;;;-3.50;99.90;;;;;;5072989;28;20520;-71
2022/12/15 01:40:44;;;;;;;19.98;10.38;;;-3.50;99.90;;;;;;5049150;28;20079;-72
2022/12/15 01:43:33;;;;;;;18.58;11.07;;;-3.40;99.90;;;;;;5068808;28;20071;-72
2022/12/15 01:46:20;;;;;;;16.83;10.02;;;-3.40;99.90;;;;;;5054882;28;20040;-71
2022/12/15 01:49:04;;;;;;;18.35;9.93;;;-3.40;99.90;;;;;;5056558;28;20044;-72
2022/12/15 01:51:38;;;;;;;17.98;9.88;;;-3.40;99.90;;;;;;5041432;28;20478;-72
2022/12/15 01:54:06;;;;;;;16.50;9.82;;;-3.40;99.90;;;;;;5071361;28;20489;-72
2022/12/15 01:56:36;;;;;;;19.50;10.05;;;-3.30;99.90;;;;;;5071561;28;20040;-72
2022/12/15 01:59:05;;;;;;;18.92;11.13;;;-3.30;99.90;;;;;;5056099;28;20078;-72
2022/12/15 02:01:30;;;;;;;16.73;9.88;;;-3.30;99.90;;;;;;5054778;28;20081;-72
2022/12/15 02:03:56;;;;;;;17.02;10.13;;;-3.30;99.90;;;;;;5036056;28;1048376;-72
2022/12/15 02:06:25;;;;;;;18.27;9.90;;;-3.30;99.90;;;;;;5054685;28;20079;-72
2022/12/15 02:08:54;;;;;;;16.95;10.48;;;-3.30;99.90;;;;;;5072465;28;20044;-72
2022/12/15 02:11:43;;;;;;;16.33;9.90;;;-3.30;99.90;;;;;;5063859;28;20040;-72
2022/12/15 02:14:11;;;;;;;16.92;9.85;;;-3.30;99.90;;;;;;5051843;28;20037;-72
2022/12/15 02:17:05;;;;;;;16.23;9.63;;;-3.30;99.90;;;;;;5050154;28;20091;-71
2022/12/15 02:19:54;;;;;;;17.20;9.43;;;-3.30;99.90;;;;;;5046834;28;20040;-72
2022/12/15 02:22:25;;;;;;;17.08;8.90;;;-3.30;99.90;;;;;;5073297;28;20044;-71
2022/12/15 02:25:32;;;;;;;15.25;9.30;;;-3.30;99.90;;;;;;5055240;28;20388;-72
2022/12/15 02:28:14;;;;;;;18.25;8.98;;;-3.30;99.90;;;;;;5056500;28;20033;-72
2022/12/15 02:33:58;;;;;;;16.25;9.15;;;-3.20;99.90;;;;;;5073054;28;20052;-72
2022/12/15 02:36:48;;;;;;;16.73;9.43;;;-3.20;99.90;;;;;;5071538;28;20488;-72
2022/12/15 02:39:14;;;;;;;16.98;9.00;;;-3.10;99.90;;;;;;5072311;28;20489;-72
2022/12/15 02:41:46;;;;;;;14.45;7.88;;;-3.00;99.90;;;;;;5060955;28;20041;-72
2022/12/15 02:44:24;;;;;;;16.38;8.35;;;-3.00;99.90;;;;;;5035588;28;20056;-72
2022/12/15 02:47:04;;;;;;;15.40;8.02;;;-3.00;99.90;;;;;;5032930;28;20033;-72
2022/12/15 02:49:39;;;;;;;16.48;9.15;;;-3.00;99.90;;;;;;5033052;28;20355;-72
2022/12/15 02:52:32;;;;;;;16.73;9.25;;;-3.00;99.90;;;;;;5016504;28;20047;-72
2022/12/15 02:55:22;;;;;;;18.77;8.18;;;-3.00;99.90;;;;;;5043811;28;20041;-72
2022/12/15 02:57:58;;;;;;;16.45;8.27;;;-3.00;99.90;;;;;;5072519;28;20489;-72
2022/12/15 03:00:23;;;;;;;15.20;8.45;;;-3.00;99.90;;;;;;5056158;28;20455;-72
2022/12/15 03:02:54;;;;;;;15.95;9.05;;;-3.00;99.90;;;;;;5072386;28;20036;-72
2022/12/15 03:05:21;;;;;;;15.23;8.70;;;-3.10;99.90;;;;;;5053715;28;20389;-72
2022/12/15 03:07:51;;;;;;;17.08;8.75;;;-3.10;99.90;;;;;;5051658;28;20439;-72
2022/12/15 03:10:18;;;;;;;15.93;8.70;;;-3.10;99.90;;;;;;5034733;28;20033;-72
2022/12/15 03:12:44;;;;;;;14.32;8.23;;;-3.10;99.90;;;;;;5026609;28;20074;-72
2022/12/15 03:15:10;;;;;;;15.45;8.77;;;-3.10;99.90;;;;;;5041636;28;20039;-72
2022/12/15 03:17:37;;;;;;;18.08;9.00;;;-3.10;99.90;;;;;;5072242;28;20105;-72
2022/12/15 03:20:03;;;;;;;14.50;8.68;;;-3.10;99.90;;;;;;5054330;28;20121;-72
2022/12/15 03:22:30;;;;;;;14.95;8.10;;;-3.10;99.90;;;;;;5055504;28;20051;-72
2022/12/15 03:24:56;;;;;;;16.02;7.70;;;-3.10;99.90;;;;;;5053938;28;20098;-72
2022/12/15 03:27:21;;;;;;;14.55;8.55;;;-3.10;99.90;;;;;;5055388;28;20040;-71
2022/12/15 03:29:47;;;;;;;14.95;8.38;;;-3.10;99.90;;;;;;5070097;28;20028;-72
2022/12/15 03:32:12;;;;;;;15.20;8.00;;;-3.10;99.90;;;;;;5055359;28;20451;-72
2022/12/15 03:34:38;;;;;;;14.90;8.98;;;-3.20;99.90;;;;;;5053032;28;20032;-72
2022/12/15 03:37:03;;;;;;;15.40;8.23;;;-3.20;99.90;;;;;;5072351;28;20044;-71
2022/12/15 03:39:29;;;;;;;15.38;8.40;;;-3.10;99.90;;;;;;5055332;28;20484;-71
2022/12/15 03:41:55;;;;;;;17.05;8.43;;;-3.10;99.90;;;;;;5054138;28;20064;-72
2022/12/15 03:44:21;;;;;;;15.00;8.32;;;-3.10;99.90;;;;;;5053704;28;20040;-72
2022/12/15 03:46:46;;;;;;;16.95;8.30;;;-3.10;99.90;;;;;;5050815;28;20120;-72
2022/12/15 03:49:12;;;;;;;14.30;8.45;;;-3.10;99.90;;;;;;5044919;28;20094;-72
2022/12/15 03:51:38;;;;;;;15.80;8.10;;;-3.10;99.90;;;;;;5053648;28;20078;-72
2022/12/15 03:54:03;;;;;;;14.57;8.20;;;-3.00;99.90;;;;;;5070408;28;20068;-72
2022/12/15 03:56:29;;;;;;;14.93;7.88;;;-3.00;99.90;;;;;;5071624;28;20481;-72
2022/12/15 03:58:54;;;;;;;15.20;8.35;;;-3.00;99.90;;;;;;5055143;28;20039;-72
2022/12/15 04:01:20;;;;;;;15.07;7.97;;;-3.00;99.90;;;;;;5067871;28;20037;-72
2022/12/15 04:03:46;;;;;;;15.63;8.00;;;-3.00;99.90;;;;;;5055588;28;20162;-72
2022/12/15 04:06:11;;;;;;;14.35;8.02;;;-3.00;99.90;;;;;;5071631;28;20127;-72
2022/12/15 04:08:37;;;;;;;15.32;8.32;;;-3.00;99.90;;;;;;5055344;28;20477;-72
2022/12/15 04:11:03;;;;;;;14.70;7.75;;;-3.10;99.90;;;;;;5042237;28;20041;-72
2022/12/15 04:13:28;;;;;;;15.55;8.23;;;-3.10;99.90;;;;;;5051556;28;20033;-72
2022/12/15 04:15:54;;;;;;;16.05;7.78;;;-3.10;99.90;;;;;;5044507;28;20043;-72
2022/12/15 04:18:19;;;;;;;15.35;8.60;;;-3.10;99.90;;;;;;5054030;28;20393;-72
2022/12/15 04:20:45;;;;;;;16.00;8.32;;;-3.10;99.90;;;;;;5069106;28;20028;-72
2022/12/15 04:23:10;;;;;;;15.48;7.72;;;-3.10;99.90;;;;;;5071462;28;20086;-72
2022/12/15 05:31:51;;;;;;;14.52;7.35;;;-2.60;99.90;;;;;;5071147;28;20048;-72
2022/12/15 05:34:22;;;;;;;10.82;6.43;;;-2.60;99.90;;;;;;5056817;28;20095;-72
2022/12/15 05:36:49;;;;;;;12.73;7.03;;;-2.60;99.90;;;;;;5058002;28;20094;-72
2022/12/15 05:39:14;;;;;;;13.40;7.53;;;-2.60;99.90;;;;;;5057523;28;20036;-72
2022/12/15 05:41:40;;;;;;;13.27;7.13;;;-2.60;99.90;;;;;;5056616;28;20063;-72
2022/12/15 05:44:06;;;;;;;12.90;7.10;;;-2.60;99.90;;;;;;5054312;28;20033;-72
2022/12/15 05:46:32;;;;;;;16.48;7.88;;;-2.60;99.90;;;;;;5052262;28;20043;-72
2022/12/15 05:48:57;;;;;;;14.73;7.47;;;-2.70;99.90;;;;;;5057209;28;20075;-72
2022/12/15 05:51:23;;;;;;;12.25;7.50;;;-2.70;99.90;;;;;;5056009;28;20033;-72
2022/12/15 05:53:49;;;;;;;16.63;7.20;;;-2.60;99.90;;;;;;5073952;28;20066;-72
2022/12/15 05:56:15;;;;;;;13.15;6.78;;;-2.60;99.90;;;;;;5056335;28;20138;-73
2022/12/15 05:58:40;;;;;;;12.55;6.43;;;-2.60;99.90;;;;;;5074173;28;20036;-72
2022/12/15 06:01:12;;;;;;;12.15;7.10;;;-2.60;99.90;;;;;;5070214;28;20044;-72
2022/12/15 06:03:38;;;;;;;17.13;7.60;;;-2.70;99.90;;;;;;5056869;28;20056;-72
2022/12/15 06:06:05;;;;;;;12.88;6.20;;;-2.70;99.90;;;;;;5073944;28;20044;-72
2022/12/15 06:08:33;;;;;;;12.32;6.90;;;-2.60;99.90;;;;;;5056805;28;20043;-72
2022/12/15 06:10:59;;;;;;;12.75;6.40;;;-2.60;99.90;;;;;;5045895;28;20481;-72
2022/12/15 06:13:27;;;;;;;12.98;6.57;;;-2.60;99.90;;;;;;5070297;28;20040;-72
2022/12/15 06:16:01;;;;;;;12.82;6.20;;;-2.50;99.90;;;;;;5071167;28;20511;-72
2022/12/15 06:18:49;;;;;;;12.95;6.25;;;-2.50;99.90;;;;;;5073439;28;20047;-72
2022/12/15 06:21:17;;;;;;;16.20;6.28;;;-2.50;99.90;;;;;;5055404;28;20037;-72
2022/12/15 06:23:43;;;;;;;12.43;6.32;;;-2.40;99.90;;;;;;5073559;28;20048;-73
2022/12/15 06:26:24;;;;;;;11.70;6.03;;;-2.50;99.90;;;;;;5054677;28;20036;-73
2022/12/15 06:28:50;;;;;;;12.57;5.88;;;-2.50;99.90;;;;;;5072614;28;20439;-73
2022/12/15 06:31:21;;;;;;;13.52;6.07;;;-2.50;99.90;;;;;;5073133;28;20040;-73
2022/12/15 06:33:51;;;;;;;10.55;5.88;;;-2.50;99.90;;;;;;5056356;28;20547;-73
2022/12/15 06:36:17;;;;;;;13.63;6.55;;;-2.40;99.90;;;;;;5055069;28;20051;-73
2022/12/15 06:38:43;;;;;;;13.10;6.55;;;-2.50;99.90;;;;;;5056513;28;20127;-73
2022/12/15 06:41:11;;;;;;;10.77;6.13;;;-2.50;99.90;;;;;;5046424;28;20041;-73
2022/12/15 06:43:38;;;;;;;12.02;6.32;;;-2.50;99.90;;;;;;5052378;28;20420;-73
2022/12/15 06:46:04;;;;;;;11.45;5.45;;;-2.40;99.90;;;;;;5047681;28;20044;-73
2022/12/15 06:48:30;;;;;;;12.98;6.30;;;-2.30;99.90;;;;;;5071676;28;20123;-74
2022/12/15 06:50:55;;;;;;;12.25;6.20;;;-2.30;99.90;;;;;;5056194;28;20083;-73
2022/12/15 06:53:23;;;;;;;11.95;6.47;;;-2.30;99.90;;;;;;5056408;28;20045;-73
2022/12/15 06:55:49;;;;;;;11.25;6.25;;;-2.30;99.90;;;;;;5051303;28;20162;-73
2022/12/15 06:58:15;;;;;;;13.40;7.10;;;-2.30;99.90;;;;;;5055813;28;20044;-73
2022/12/15 07:00:43;;;;;;;12.13;6.15;;;-2.20;99.90;;;;;;5054575;28;20044;-73
2022/12/15 07:03:15;;;;;;;10.98;6.40;;;-2.10;99.90;;;;;;5071307;28;20059;-73
2022/12/15 07:05:42;;;;;;;14.27;6.38;;;-2.10;99.90;;;;;;5068555;28;20052;-73
2022/12/15 07:08:12;;;;;;;14.38;6.68;;;-2.10;99.90;;;;;;5054672;28;20043;-73
2022/12/15 07:10:39;;;;;;;12.95;6.28;;;-2.20;99.90;;;;;;5051716;28;20048;-73
2022/12/15 07:13:07;;;;;;;14.52;6.53;;;-2.20;99.90;;;;;;5063196;28;20044;-73
2022/12/15 07:15:32;;;;;;;15.85;6.68;;;-2.10;99.90;;;;;;5048036;28;20048;-73
2022/12/15 07:17:58;;;;;;;13.43;7.35;;;-2.10;99.90;;;;;;5047399;28;20087;-73
2022/12/15 07:20:24;;;;;;;13.77;5.95;;;-2.10;99.90;;;;;;5069392;28;20047;-73
2022/12/15 07:22:52;;;;;;;14.68;6.65;;;-2.10;99.90;;;;;;5072244;28;20131;-73
2022/12/15 07:25:18;;;;;;;11.70;6.43;;;-2.00;99.90;;;;;;5067757;28;20044;-73
2022/12/15 07:27:47;;;;;;;12.27;6.00;;;-2.00;99.90;;;;;;5055343;28;20139;-73
2022/12/15 07:30:14;;;;;;;12.23;5.93;;;-2.00;99.90;;;;;;5037593;28;20095;-73
2022/12/15 07:32:40;;;;;;;13.63;6.78;;;-1.90;99.90;;;;;;5032827;28;20045;-73
2022/12/15 07:35:07;;;;;;;12.35;6.40;;;-1.80;99.90;;;;;;5054119;28;20044;-73
2022/12/15 07:37:33;;;;;;;13.73;6.15;;;-1.80;99.90;;;;;;5040924;28;20044;-73
2022/12/15 07:39:59;;;;;;;15.40;6.70;;;-1.70;99.90;;;;;;5051643;28;20513;-73
2022/12/15 07:42:28;;;;;;;12.57;6.22;;;-1.70;99.90;;;;;;5033391;28;20116;-73
2022/12/15 07:44:54;;;;;;;14.05;6.40;;;-1.70;99.90;;;;;;5047016;28;20036;-73
2022/12/15 07:47:19;;;;;;;13.63;6.15;;;-1.70;99.90;;;;;;5028105;28;20026;-73
2022/12/15 07:49:45;;;;;;;12.38;6.13;;;-1.70;99.90;;;;;;5042146;28;20115;-73
2022/12/15 07:52:12;;;;;;;10.77;6.60;;;-1.70;99.90;;;;;;5026976;28;20033;-73
2022/12/15 07:54:38;;;;;;;11.32;5.53;;;-1.70;99.90;;;;;;5032476;28;20041;-73
2022/12/15 07:57:06;;;;;;;12.85;5.90;;;-1.70;99.90;;;;;;5051405;28;20151;-73
2022/12/15 07:59:33;;;;;;;12.57;5.32;;;-1.60;99.90;;;;;;5033571;28;20413;-73
2022/12/15 08:01:59;;;;;;;12.20;6.03;;;-1.60;99.90;;;;;;5034995;28;20033;-73
2022/12/15 08:04:25;;;;;;;12.57;6.18;;;-1.50;99.90;;;;;;5047351;28;20049;-74
2022/12/15 08:06:53;;;;;;;12.90;6.28;;;-1.50;99.90;;;;;;5034769;28;20037;-74
2022/12/15 08:09:19;;;;;;;14.35;6.60;;;-1.50;99.90;;;;;;5050335;28;20481;-74
2022/12/15 08:11:44;;;;;;;12.82;6.35;;;-1.50;99.90;;;;;;5067931;28;20045;-73
2022/12/15 08:14:10;;;;;;;12.48;6.47;;;-1.50;99.90;;;;;;5031629;28;20048;-74
2022/12/15 08:16:36;;;;;;;10.98;5.82;;;-1.40;99.90;;;;;;5051049;28;20044;-74
2022/12/15 08:19:04;;;;;;;12.88;7.05;;;-1.40;99.90;;;;;;5067684;28;20551;-74
2022/12/15 08:21:30;;;;;;;13.15;6.00;;;-1.30;99.90;;;;;;5040228;28;20123;-74
2022/12/15 08:23:56;;;;;;;15.90;6.90;;;-1.30;99.90;;;;;;5050065;28;20059;-74
2022/12/15 08:26:22;;;;;;;12.23;6.25;;;-1.20;99.90;;;;;;5051545;28;20041;-74
2022/12/15 08:28:48;;;;;;;12.40;5.90;;;-1.20;99.90;;;;;;5033458;28;20044;-74
2022/12/15 08:31:16;;;;;;;11.00;4.82;;;-1.10;99.90;;;;;;5049943;28;20045;-74
2022/12/15 08:33:43;;;;;;;12.80;6.15;;;-1.10;99.90;;;;;;5051387;28;20053;-74
2022/12/15 08:36:11;;;;;;;11.35;5.28;;;-1.20;99.90;;;;;;5033997;28;20048;-74
2022/12/15 08:38:38;;;;;;;16.38;7.43;;;-1.20;99.90;;;;;;5053267;28;20496;-74
2022/12/15 08:41:10;;;;;;;11.45;5.65;;;-1.10;99.90;;;;;;5052147;28;20064;-74
2022/12/15 08:43:36;;;;;;;12.32;6.25;;;-1.10;99.90;;;;;;5055217;28;20045;-74
2022/12/15 08:46:03;;;;;;;13.27;6.72;;;-1.00;99.90;;;;;;5054310;28;20064;-74
2022/12/15 08:48:28;;;;;;;11.80;5.85;;;-1.10;99.90;;;;;;5051074;28;20076;-74
2022/12/15 08:50:55;;;;;;;7.18;3.35;;;-1.20;99.90;;;;;;5033577;28;20389;-74
2022/12/15 08:53:21;;;;;;;11.13;4.97;;;-0.90;99.90;;;;;;5032543;28;20392;-74
2022/12/15 08:55:46;;;;;;;14.30;6.20;;;-0.90;99.90;;;;;;5049467;28;20037;-74
2022/12/15 08:58:12;;;;;;;11.68;5.63;;;-0.90;99.90;;;;;;5038310;28;20395;-74
2022/12/15 09:00:38;;;;;;;11.45;5.50;;;-1.00;99.90;;;;;;5036622;28;20090;-74
2022/12/15 09:03:03;;;;;;;14.38;6.65;;;-0.90;99.90;;;;;;5039698;28;20094;-74
2022/12/15 09:05:30;;;;;;;10.93;6.03;;;-0.80;99.90;;;;;;5064522;28;20570;-74
2022/12/15 09:07:57;;;;;;;13.57;6.10;;;-0.70;99.90;;;;;;5039452;28;20047;-74
2022/12/15 09:10:23;;;;;;;12.95;5.90;;;-0.70;99.90;;;;;;5035500;28;20056;-74
2022/12/15 09:12:49;;;;;;;11.68;4.88;;;-0.70;99.90;;;;;;5040077;28;20037;-74
2022/12/15 09:15:16;;;;;;;13.63;6.72;;;-0.60;99.90;;;;;;5059110;28;20045;-74
2022/12/15 09:17:42;;;;;;;8.65;3.72;;;-0.60;99.90;;;;;;5055163;28;20041;-74
2022/12/15 09:20:08;;;;;;;12.07;6.22;;;-0.50;99.90;;;;;;5054107;28;20037;-74
2022/12/15 09:22:35;;;;;;;11.43;6.30;;;-0.50;99.90;;;;;;5065053;28;20061;-74
2022/12/15 09:25:01;;;;;;;13.45;6.07;;;-0.40;99.90;;;;;;5026479;28;20103;-74
2022/12/15 09:27:29;;;;;;;14.60;6.95;;;-0.40;99.90;;;;;;5041962;28;20490;-74
2022/12/15 09:29:55;;;;;;;13.55;5.18;;;-0.40;99.90;;;;;;5039056;28;20045;-74
2022/12/15 09:32:21;;;;;;;11.68;6.25;;;-0.40;99.90;;;;;;5055648;28;20493;-74
2022/12/15 09:34:46;;;;;;;13.30;7.25;;;-0.30;99.90;;;;;;5062302;28;20040;-74
2022/12/15 09:37:12;;;;;;;14.25;7.20;;;-0.30;99.90;;;;;;5035331;28;20029;-74
2022/12/15 09:39:38;;;;;;;13.50;6.97;;;-0.20;99.90;;;;;;5052950;28;20045;-74
2022/12/15 09:42:03;;;;;;;14.75;7.38;;;-0.10;99.90;;;;;;5057167;28;20052;-74
2022/12/15 09:44:31;;;;;;;13.70;6.40;;;0.00;99.90;;;;;;5058434;28;20048;-74
2022/12/15 09:47:29;;;;;;;15.18;7.18;;;0.10;99.90;;;;;;5035137;28;20040;-74
2022/12/15 09:50:01;;;;;;;12.20;6.35;;;0.20;99.90;;;;;;5070999;28;20123;-74
2022/12/15 09:52:34;;;;;;;14.95;6.03;;;0.30;99.90;;;;;;5043938;28;20040;-74
2022/12/15 09:55:00;;;;;;;15.23;6.68;;;0.40;99.90;;;;;;5062119;28;20121;-74
2022/12/15 09:57:38;;;;;;;13.00;5.82;;;0.40;99.90;;;;;;5047363;28;20124;-74
2022/12/15 10:00:20;;;;;;;14.05;6.05;;;0.40;99.90;;;;;;5057576;28;20374;-74
2022/12/15 10:03:24;;;;;;;13.70;6.13;;;0.40;99.90;;;;;;5033663;28;20409;-73
2022/12/15 10:06:11;;;;;;;12.98;5.90;;;0.50;99.90;;;;;;5025390;28;20045;-74
2022/12/15 10:08:41;;;;;;;11.27;6.03;;;0.60;99.90;;;;;;5060188;28;20051;-74
2022/12/15 10:11:42;;;;;;;12.13;5.78;;;0.70;99.90;;;;;;5032980;28;20045;-74
2022/12/15 10:14:48;;;;;;;12.73;5.90;;;0.90;99.90;;;;;;5048128;28;20037;-74
2022/12/15 10:17:47;;;;;;;10.75;5.72;;;1.00;99.90;;;;;;5040741;28;20036;-74
2022/12/15 10:20:19;;;;;;;12.13;5.65;;;1.20;99.90;;;;;;5048565;28;20045;-74
2022/12/15 10:22:45;;;;;;;11.23;4.95;;;1.20;99.90;;;;;;5052506;28;20041;-74
2022/12/15 10:25:22;;;;;;;12.73;5.57;;;1.30;99.90;;;;;;5062937;28;20033;-74
2022/12/15 10:28:02;;;;;;;11.70;5.97;;;1.40;99.90;;;;;;5052366;28;20485;-74
2022/12/15 10:30:28;;;;;;;10.85;5.95;;;1.40;99.90;;;;;;5054743;28;20036;-74
2022/12/15 10:33:18;;;;;;;13.45;6.43;;;1.50;99.90;;;;;;5049005;28;20404;-73
2022/12/15 10:35:45;;;;;;;11.65;6.13;;;1.60;99.90;;;;;;5044474;28;20401;-74
2022/12/15 10:38:36;;;;;;;10.57;6.32;;;1.70;99.90;;;;;;5034783;28;20052;-74
2022/12/15 10:41:04;;;;;;;13.33;4.87;;;1.70;99.90;;;;;;5023764;28;20052;-74
2022/12/15 10:43:36;;;;;;;11.45;5.85;;;1.80;99.90;;;;;;5066577;28;20036;-74
2022/12/15 10:46:14;;;;;;;;;;;1.90;99.90;;;;;;5048083;28;20038;-74
2022/12/15 10:48:52;;;;;;;8.65;3.78;;;2.00;99.90;;;;;;5055591;28;20376;-74
2022/12/15 10:51:35;;;;;;;12.07;5.93;;;2.00;99.90;;;;;;5040054;28;20108;-74
2022/12/15 10:54:05;;;;;;;11.75;5.57;;;2.10;99.90;;;;;;5048234;28;20041;-74
2022/12/15 10:56:32;;;;;;;11.65;4.60;;;2.10;99.90;;;;;;5071864;28;20093;-73
2022/12/15 10:59:19;;;;;;;9.88;4.97;;;2.20;99.90;;;;;;5039797;28;20083;-74
2022/12/15 11:01:45;;;;;;;10.38;4.97;;;2.30;99.90;;;;;;5027482;28;20075;-74
2022/12/15 11:04:28;;;;;;;10.05;4.90;;;2.40;99.90;;;;;;5033694;28;20497;-74
2022/12/15 11:07:02;;;;;;;11.65;5.43;;;2.40;99.90;;;;;;5053656;28;20032;-73
2022/12/15 11:09:34;;;;;;;11.65;5.50;;;2.30;99.90;;;;;;5070923;28;20463;-74
2022/12/15 11:14:48;;;;;;;9.38;4.75;;;2.30;99.90;;;;;;5061863;28;20135;-73
2022/12/15 11:17:19;;;;;;;10.00;5.22;;;2.30;99.90;;;;;;5070772;28;20051;-73
2022/12/15 11:20:04;;;;;;;8.70;3.28;;;2.30;99.90;;;;;;5070474;28;20044;-73
2022/12/15 11:22:52;;;;;;;13.43;5.82;;;2.30;99.90;;;;;;5035578;28;20104;-73
2022/12/15 11:25:23;;;;;;;10.13;4.63;;;2.30;99.90;;;;;;5031238;28;20040;-73
2022/12/15 11:27:54;;;;;;;11.10;5.72;;;2.30;99.90;;;;;;5034053;28;20500;-73
2022/12/15 11:30:23;;;;;;;10.73;4.75;;;2.30;99.90;;;;;;5036344;28;20047;-73
2022/12/15 11:32:54;;;;;;;12.43;5.97;;;2.20;99.90;;;;;;5033380;28;20037;-73
2022/12/15 11:35:27;;;;;;;9.23;4.68;;;2.20;99.90;;;;;;5044796;28;20049;-73
2022/12/15 11:38:15;;;;;;;9.63;4.75;;;2.20;99.90;;;;;;5036921;28;20052;-73
2022/12/15 11:40:41;;;;;;;12.88;5.47;;;2.20;99.90;;;;;;5042718;28;20044;-73
2022/12/15 11:43:17;;;;;;;7.95;4.07;;;2.20;99.90;;;;;;5030409;28;20077;-73
2022/12/15 11:46:23;;;;;;;11.90;4.80;;;2.20;99.90;;;;;;5050984;28;20040;-73
2022/12/15 11:49:24;;;;;;;6.55;2.78;;;2.30;99.90;;;;;;5034567;28;20045;-73
2022/12/15 11:52:19;;;;;;;9.80;4.97;;;2.30;99.90;;;;;;5017580;28;20037;-74
2022/12/15 11:54:54;;;;;;;11.20;5.10;;;2.30;99.90;;;;;;5031846;28;20041;-73
2022/12/15 11:57:39;;;;;;;10.10;5.22;;;2.30;99.90;;;;;;5014848;28;20164;-74
2022/12/15 12:00:14;;;;;;;10.25;4.43;;;2.30;99.90;;;;;;5041130;28;20073;-73
2022/12/15 12:02:54;;;;;;;10.98;5.00;;;2.40;99.90;;;;;;5049222;28;20048;-73
2022/12/15 12:05:46;;;;;;;10.65;5.18;;;2.40;99.90;;;;;;5044138;28;20061;-74
2022/12/15 12:08:23;;;;;;;10.90;4.50;;;2.40;99.90;;;;;;5001161;28;20422;-73
2022/12/15 12:11:13;;;;;;;9.73;5.00;;;2.50;99.90;;;;;;5031142;28;20423;-73
2022/12/15 12:14:06;;;;;;;11.02;4.50;;;2.50;99.90;;;;;;5026674;28;20489;-74
2022/12/15 12:16:53;;;;;;;5.72;3.10;;;2.50;99.90;;;;;;5035733;28;20045;-73
2022/12/15 12:19:41;;;;;;;9.98;4.97;;;2.60;99.90;;;;;;5025111;28;20048;-73
2022/12/15 12:22:24;;;;;;;12.70;5.25;;;2.60;99.90;;;;;;5057231;28;20052;-73
2022/12/15 12:24:57;;;;;;;10.25;5.20;;;2.60;99.90;;;;;;5043131;28;20070;-73
2022/12/15 12:27:45;;;;;;;10.90;5.25;;;2.50;99.90;;;;;;5035550;28;20464;-73
2022/12/15 12:30:13;;;;;;;13.15;5.03;;;2.60;99.90;;;;;;5057730;28;20032;-73
2022/12/15 12:32:47;;;;;;;12.32;5.47;;;2.60;99.90;;;;;;5056019;28;20595;-73
2022/12/15 12:35:13;;;;;;;9.15;4.40;;;2.70;99.90;;;;;;5050502;28;20055;-73
2022/12/15 12:37:48;;;;;;;10.63;4.57;;;2.70;99.90;;;;;;5055038;28;20040;-73
2022/12/15 12:40:35;;;;;;;10.38;5.50;;;2.70;99.90;;;;;;5038138;28;20073;-73
2022/12/15 12:43:02;;;;;;;11.35;5.40;;;2.70;99.90;;;;;;5072967;28;20043;-73
2022/12/15 12:45:56;;;;;;;11.07;4.38;;;2.70;99.90;;;;;;5055047;28;20515;-73
2022/12/15 12:48:34;;;;;;;11.02;5.13;;;2.80;99.90;;;;;;5061719;28;20457;-73
2022/12/15 12:51:16;;;;;;;11.13;5.05;;;2.80;99.90;;;;;;5037391;28;20486;-73
2022/12/15 12:53:42;;;;;;;;;;;2.80;99.90;;;;;;5049603;28;20493;-74
2022/12/15 12:56:33;;;;;;;11.30;4.32;;;2.80;99.90;;;;;;5037826;28;19923;-73
2022/12/15 12:58:59;;;;;;;9.97;5.40;;;2.80;99.90;;;;;;5049322;28;20485;-73
2022/12/15 13:01:38;;;;;;;11.32;5.90;;;2.80;99.90;;;;;;5051083;28;20556;-73
2022/12/15 13:04:06;;;;;;;11.63;5.43;;;2.80;99.90;;;;;;5060345;28;20044;-73
2022/12/15 13:06:34;;;;;;;11.40;4.95;;;2.80;99.90;;;;;;5071157;28;20040;-73
2022/12/15 13:09:15;;;;;;;8.82;4.47;;;2.90;99.90;;;;;;5056503;28;20044;-73
2022/12/15 13:11:47;;;;;;;10.90;5.80;;;2.90;99.90;;;;;;5058141;28;20036;-73
2022/12/15 13:14:19;;;;;;;13.30;5.63;;;2.90;99.90;;;;;;5026130;28;20555;-73
2022/12/15 13:16:45;;;;;;;11.40;4.95;;;3.00;99.90;;;;;;5054501;28;20064;-73
2022/12/15 13:19:12;;;;;;;11.27;5.03;;;3.10;99.90;;;;;;5047533;28;20039;-73
2022/12/15 13:21:41;;;;;;;10.75;5.22;;;3.10;99.90;;;;;;5070140;28;20090;-73
2022/12/15 13:24:30;;;;;;;12.05;5.43;;;3.20;99.90;;;;;;5056520;28;20045;-73
2022/12/15 13:27:08;;;;;;;9.70;4.60;;;3.20;99.90;;;;;;5038441;28;20037;-73
2022/12/15 13:29:53;;;;;;;10.68;5.25;;;3.20;99.90;;;;;;5068317;28;20156;-73
2022/12/15 13:32:35;;;;;;;10.35;4.65;;;3.20;99.90;;;;;;5038322;28;20041;-73
2022/12/15 13:35:19;;;;;;;11.90;4.70;;;3.30;99.90;;;;;;5034588;28;20492;-73
2022/12/15 13:37:52;;;;;;;9.65;4.70;;;3.30;99.90;;;;;;5038359;28;20051;-74
2022/12/15 13:40:32;;;;;;;12.02;5.20;;;3.30;99.90;;;;;;5042687;28;20123;-73
2022/12/15 13:43:05;;;;;;;10.57;5.03;;;3.40;99.90;;;;;;5037056;28;20045;-73
2022/12/15 13:45:36;;;;;;;11.30;4.60;;;3.30;99.90;;;;;;5037619;28;20033;-73
2022/12/15 13:48:24;;;;;;;12.13;4.95;;;3.40;99.90;;;;;;5059379;28;20112;-73
2022/12/15 13:51:16;;;;;;;13.68;5.65;;;3.40;99.90;;;;;;5050484;28;20109;-73
2022/12/15 13:53:46;;;;;;;13.23;5.05;;;3.40;99.90;;;;;;5041435;28;20508;-73
2022/12/15 13:56:33;;;;;;;11.23;5.32;;;3.40;99.90;;;;;;5053093;28;20440;-73
2022/12/15 13:59:12;;;;;;;13.75;5.95;;;3.40;99.90;;;;;;5036499;28;20400;-73
2022/12/15 14:01:50;;;;;;;11.38;5.05;;;3.30;99.90;;;;;;5036199;28;20045;-73
2022/12/15 14:04:17;;;;;;;8.93;4.68;;;3.30;99.90;;;;;;5064367;28;20080;-73
2022/12/15 14:06:52;;;;;;;12.32;5.40;;;3.30;99.90;;;;;;5049500;28;20037;-73
2022/12/15 14:09:34;;;;;;;12.05;5.28;;;3.30;99.90;;;;;;5025633;28;20073;-73
2022/12/15 14:12:01;;;;;;;;;;;3.20;99.90;;;;;;5042063;28;20036;-73
2022/12/15 14:14:34;;;;;;;11.38;5.55;;;3.10;99.90;;;;;;5061510;28;19994;-73
2022/12/15 14:17:02;;;;;;;11.70;5.32;;;3.20;99.90;;;;;;5072942;28;20531;-73
2022/12/15 14:19:42;;;;;;;13.88;6.05;;;3.20;99.90;;;;;;5054371;28;20045;-73
2022/12/15 14:22:23;;;;;;;12.50;5.53;;;3.20;99.90;;;;;;5055158;28;20558;-73
2022/12/15 14:24:51;;;;;;;12.15;5.63;;;3.20;99.90;;;;;;5035128;28;20037;-73
2022/12/15 14:27:25;;;;;;;10.68;5.35;;;3.20;99.90;;;;;;5034827;28;20450;-73
2022/12/15 14:30:09;;;;;;;12.70;5.68;;;3.10;99.90;;;;;;5037874;28;20039;-73
2022/12/15 14:32:34;;;;;;;11.40;5.35;;;3.20;99.90;;;;;;5034677;28;20049;-73
2022/12/15 14:35:00;;;;;;;11.55;5.25;;;3.20;99.90;;;;;;5040421;28;20033;-73
2022/12/15 14:37:26;;;;;;;10.68;5.57;;;3.20;99.90;;;;;;5062841;28;20495;-73
2022/12/15 14:39:52;;;;;;;11.00;6.28;;;3.10;99.90;;;;;;5054655;28;20036;-72
2022/12/15 14:42:22;;;;;;;11.52;6.43;;;3.10;99.90;;;;;;5067767;28;20050;-72
2022/12/15 14:44:49;;;;;;;11.77;6.00;;;3.00;99.90;;;;;;5049583;28;20404;-72
2022/12/15 14:47:32;;;;;;;10.80;5.90;;;3.00;99.90;;;;;;5035761;28;20037;-73
2022/12/15 14:50:00;;;;;;;13.43;6.57;;;2.90;99.90;;;;;;5040461;28;20033;-72
2022/12/15 14:52:35;;;;;;;13.13;6.57;;;2.90;99.90;;;;;;5055652;28;20049;-72
2022/12/15 14:55:22;;;;;;;12.30;6.47;;;2.80;99.90;;;;;;5051162;28;20042;-72
2022/12/15 14:57:51;;;;;;;11.77;6.93;;;2.80;99.90;;;;;;5030054;28;20041;-72
2022/12/15 15:00:25;;;;;;;13.00;6.63;;;2.70;99.90;;;;;;5055846;28;20072;-72
2022/12/15 15:03:13;;;;;;;13.02;6.07;;;2.70;99.90;;;;;;5034259;28;20076;-72
2022/12/15 15:05:41;;;;;;;13.25;6.88;;;2.70;99.90;;;;;;5050128;28;20056;-73
2022/12/15 15:08:13;;;;;;;13.65;6.85;;;2.70;99.90;;;;;;5067656;28;20047;-72
2022/12/15 15:10:40;;;;;;;17.63;7.32;;;2.60;99.90;;;;;;5058458;28;20036;-72
2022/12/15 15:13:18;;;;;;;11.90;6.90;;;2.50;99.90;;;;;;5049678;28;20417;-72
2022/12/15 15:15:52;;;;;;;16.20;7.10;;;2.50;99.90;;;;;;5046152;28;20040;-72
2022/12/15 15:18:25;;;;;;;11.07;7.13;;;2.40;99.90;;;;;;5033285;28;20041;-72
2022/12/15 15:20:58;;;;;;;16.20;7.72;;;2.40;99.90;;;;;;5037390;28;20041;-72
2022/12/15 15:23:24;;;;;;;13.73;7.68;;;2.40;99.90;;;;;;5048674;28;20037;-72
2022/12/15 15:26:07;;;;;;;14.82;7.55;;;2.30;99.90;;;;;;5051679;28;20041;-72
2022/12/15 15:28:41;;;;;;;13.13;7.70;;;2.30;99.90;;;;;;5033845;28;20392;-72
2022/12/15 15:31:33;;;;;;;12.65;7.05;;;2.30;99.90;;;;;;5035135;28;20115;-72